createdAt,value
2018-09-05T00:00:42.386Z,97517.34
2018-09-05T00:03:10.142Z,97521.93
2018-09-05T00:05:37.839Z,97519.34
2018-09-05T00:08:05.641Z,97519.01
2018-09-05T00:10:33.354Z,97515.73
2018-09-05T00:13:01.048Z,97513.05
2018-09-05T00:15:28.734Z,97510.61
2018-09-05T00:17:56.487Z,97510.93
2018-09-05T00:20:24.210Z,97509.58
2018-09-05T00:22:51.917Z,97504.97
2018-09-05T00:25:19.594Z,97505.54
2018-09-05T00:27:47.392Z,97501.50
2018-09-05T00:30:15.054Z,97504.52
2018-09-05T00:32:42.722Z,97511.47
2018-09-05T00:35:10.408Z,97510.67
2018-09-05T00:37:38.068Z,97507.21
2018-09-05T00:40:05.924Z,97507.76
2018-09-05T00:42:33.699Z,97504.30
2018-09-05T00:45:01.355Z,97512.82
2018-09-05T00:47:29.009Z,97509.91
2018-09-05T00:50:00.182Z,97505.64
2018-09-05T00:52:28.749Z,97509.11
2018-09-05T00:54:56.865Z,97506.19
2018-09-05T00:57:24.847Z,97503.50
2018-09-05T00:59:52.626Z,97508.88
2018-09-05T01:02:20.430Z,97509.69
2018-09-05T01:04:48.126Z,97506.98
2018-09-05T01:07:23.490Z,97509.43
2018-09-05T01:09:51.206Z,97506.73
2018-09-05T01:12:20.473Z,97506.29
2018-09-05T01:14:48.213Z,97514.05
2018-09-05T01:17:15.937Z,97515.14
2018-09-05T01:19:43.632Z,97505.72
2018-09-05T01:22:11.469Z,97503.59
2018-09-05T01:24:39.578Z,97511.67
2018-09-05T01:27:08.036Z,97508.73
2018-09-05T01:29:37.147Z,97506.29
2018-09-05T01:32:04.902Z,97503.92
2018-09-05T01:34:32.601Z,97496.61
2018-09-05T01:37:00.320Z,97497.95
2018-09-05T01:39:28.016Z,97503.92
2018-09-05T01:41:55.814Z,97499.63
2018-09-05T01:44:23.492Z,97498.28
2018-09-05T01:46:51.199Z,97494.81
2018-09-05T01:49:18.938Z,97489.11
2018-09-05T01:51:46.621Z,97493.47
2018-09-05T01:54:16.008Z,97488.63
2018-09-05T01:56:43.826Z,97485.71
2018-09-05T01:59:11.549Z,97487.28
2018-09-05T02:01:39.279Z,97483.02
2018-09-05T02:04:06.929Z,97484.91
2018-09-05T02:06:34.601Z,97485.71
2018-09-05T02:09:02.402Z,97488.41
2018-09-05T02:11:30.107Z,97488.16
2018-09-05T02:13:57.818Z,97483.89
2018-09-05T02:16:25.520Z,97489.05
2018-09-05T02:18:53.222Z,97478.28
2018-09-05T02:21:20.933Z,97483.09
2018-09-05T02:23:48.611Z,97472.89
2018-09-05T02:26:16.296Z,97483.89
2018-09-05T02:28:44.017Z,97482.22
2018-09-05T02:31:11.703Z,97483.02
2018-09-05T02:33:39.442Z,97476.68
2018-09-05T02:36:07.118Z,97483.09
2018-09-05T02:38:34.829Z,97479.63
2018-09-05T02:41:02.480Z,97480.97
2018-09-05T02:43:35.553Z,97489.83
2018-09-05T02:46:03.261Z,97489.28
2018-09-05T02:48:30.974Z,97485.34
2018-09-05T02:50:58.628Z,97496.66
2018-09-05T02:53:26.317Z,97491.05
2018-09-05T02:55:59.137Z,97489.12
2018-09-05T02:58:26.820Z,97487.78
2018-09-05T03:00:54.539Z,97488.58
2018-09-05T03:03:22.389Z,97487.78
2018-09-05T03:05:50.246Z,97485.66
2018-09-05T03:08:17.933Z,97487.33
2018-09-05T03:10:45.693Z,97480.59
2018-09-05T03:13:13.430Z,97485.41
2018-09-05T03:15:41.144Z,97492.14
2018-09-05T03:18:08.928Z,97485.66
2018-09-05T03:20:36.706Z,97484.86
2018-09-05T03:23:04.401Z,97489.45
2018-09-05T03:25:32.109Z,97493.48
2018-09-05T03:27:59.760Z,97493.48
2018-09-05T03:30:27.421Z,97490.57
2018-09-05T03:32:55.144Z,97493.27
2018-09-05T03:35:23.033Z,97494.83
2018-09-05T03:37:50.756Z,97499.20
2018-09-05T03:40:18.462Z,97500.00
2018-09-05T03:42:46.145Z,97506.50
2018-09-05T03:45:13.838Z,97505.48
2018-09-05T03:47:41.556Z,97504.14
2018-09-05T03:50:09.773Z,97511.64
2018-09-05T03:52:37.474Z,97503.56
2018-09-05T03:55:05.198Z,97507.92
2018-09-05T03:57:32.889Z,97508.17
2018-09-05T04:00:00.611Z,97501.44
2018-09-05T04:02:28.330Z,97506.25
2018-09-05T04:04:56.207Z,97501.19
2018-09-05T04:07:23.964Z,97499.84
2018-09-05T04:09:51.677Z,97500.16
2018-09-05T04:12:19.510Z,97500.97
2018-09-05T04:14:47.297Z,97498.82
2018-09-05T04:17:15.027Z,97502.86
2018-09-05T04:19:43.522Z,97501.77
2018-09-05T04:22:11.275Z,97498.82
2018-09-05T04:24:38.935Z,97506.13
2018-09-05T04:27:06.737Z,97501.52
2018-09-05T04:29:34.521Z,97506.90
2018-09-05T04:32:02.137Z,97496.70
2018-09-05T04:34:29.992Z,97503.11
2018-09-05T04:36:57.644Z,97498.82
2018-09-05T04:39:25.331Z,97495.68
2018-09-05T04:41:53.049Z,97497.80
2018-09-05T04:44:20.721Z,97508.24
2018-09-05T04:46:48.447Z,97511.52
2018-09-05T04:49:16.201Z,97503.98
2018-09-05T04:51:43.886Z,97504.30
2018-09-05T04:54:11.555Z,97504.53
2018-09-05T04:56:39.246Z,97508.02
2018-09-05T04:59:07.017Z,97500.48
2018-09-05T05:01:34.874Z,97501.84
2018-09-05T05:04:02.751Z,97508.56
2018-09-05T05:06:30.474Z,97507.22
2018-09-05T05:08:58.197Z,97500.48
2018-09-05T05:11:26.045Z,97504.78
2018-09-05T05:13:54.090Z,97506.67
2018-09-05T05:16:21.692Z,97512.28
2018-09-05T05:18:49.327Z,97513.88
2018-09-05T05:21:16.954Z,97514.75
2018-09-05T05:23:44.611Z,97526.33
2018-09-05T05:26:12.236Z,97527.09
2018-09-05T05:28:39.889Z,97526.55
2018-09-05T05:31:07.509Z,97532.73
2018-09-05T05:33:35.210Z,97538.89
2018-09-05T05:36:02.829Z,97535.97
2018-09-05T05:38:30.512Z,97540.23
2018-09-05T05:40:58.124Z,97542.70
2018-09-05T05:43:25.754Z,97535.88
2018-09-05T05:45:53.374Z,97536.45
2018-09-05T05:48:21.007Z,97533.98
2018-09-05T05:50:49.289Z,97537.22
2018-09-05T05:53:16.908Z,97538.02
2018-09-05T05:55:44.533Z,97542.86
2018-09-05T05:58:12.165Z,97549.59
2018-09-05T06:00:39.953Z,97546.33
2018-09-05T06:03:07.626Z,97546.10
2018-09-05T06:05:35.313Z,97545.30
2018-09-05T06:08:03.069Z,97545.56
2018-09-05T06:10:30.822Z,97551.72
2018-09-05T06:12:59.255Z,97549.02
2018-09-05T06:15:27.722Z,97546.80
2018-09-05T06:17:55.451Z,97545.78
2018-09-05T06:20:23.213Z,97550.62
2018-09-05T06:22:50.998Z,97547.35
2018-09-05T06:25:18.889Z,97552.19
2018-09-05T06:27:46.723Z,97548.95
2018-09-05T06:30:14.398Z,97550.05
2018-09-05T06:32:42.097Z,97552.41
2018-09-05T06:35:09.849Z,97550.62
2018-09-05T06:37:37.857Z,97559.15
2018-09-05T06:40:05.922Z,97561.07
2018-09-05T06:42:33.657Z,97566.20
2018-09-05T06:45:01.537Z,97568.13
2018-09-05T06:47:29.260Z,97568.90
2018-09-05T06:49:57.310Z,97576.20
2018-09-05T06:52:25.058Z,97576.20
2018-09-05T06:54:52.944Z,97575.95
2018-09-05T06:57:20.753Z,97577.55
2018-09-05T06:59:48.602Z,97585.63
2018-09-05T07:02:16.662Z,97576.20
2018-09-05T07:04:44.513Z,97580.79
2018-09-05T07:07:12.583Z,97583.48
2018-09-05T07:09:40.357Z,97586.98
2018-09-05T07:12:08.162Z,97586.98
2018-09-05T07:14:36.081Z,97588.88
2018-09-05T07:17:04.036Z,97593.71
2018-09-05T07:19:31.967Z,97594.26
2018-09-05T07:22:00.069Z,97595.83
2018-09-05T07:24:27.934Z,97594.26
2018-09-05T07:26:55.703Z,97595.06
2018-09-05T07:29:23.553Z,97598.52
2018-09-05T07:31:51.384Z,97607.63
2018-09-05T07:34:19.146Z,97600.13
2018-09-05T07:36:46.964Z,97608.43
2018-09-05T07:39:14.874Z,97609.23
2018-09-05T07:41:42.713Z,97611.34
2018-09-05T07:44:10.639Z,97604.39
2018-09-05T07:46:38.354Z,97612.70
2018-09-05T07:49:06.335Z,97611.61
2018-09-05T07:51:34.133Z,97621.25
2018-09-05T07:54:01.942Z,97621.80
2018-09-05T07:56:29.692Z,97618.34
2018-09-05T07:58:57.608Z,97616.19
2018-09-05T08:01:25.412Z,97623.24
2018-09-05T08:03:53.477Z,97620.78
2018-09-05T08:06:21.255Z,97626.73
2018-09-05T08:08:49.553Z,97627.51
2018-09-05T08:11:17.446Z,97629.17
2018-09-05T08:13:45.421Z,97628.09
2018-09-05T08:16:13.320Z,97632.89
2018-09-05T08:18:41.083Z,97636.94
2018-09-05T08:21:39.087Z,97631.48
2018-09-05T08:24:07.019Z,97631.71
2018-09-05T08:26:34.833Z,97631.07
2018-09-05T08:29:02.697Z,97630.27
2018-09-05T08:31:30.572Z,97629.17
2018-09-05T08:33:58.257Z,97626.94
2018-09-05T08:36:26.203Z,97627.51
2018-09-05T08:38:53.811Z,97635.81
2018-09-05T08:41:21.565Z,97632.32
2018-09-05T08:43:49.265Z,97627.41
2018-09-05T08:46:17.055Z,97628.66
2018-09-05T08:48:44.760Z,97629.69
2018-09-05T08:51:12.517Z,97630.94
2018-09-05T08:53:40.234Z,97623.11
2018-09-05T08:56:07.941Z,97621.51
2018-09-05T08:58:35.600Z,97622.31
2018-09-05T09:01:03.226Z,97626.35
2018-09-05T09:03:30.860Z,97623.88
2018-09-05T09:05:58.635Z,97627.48
2018-09-05T09:08:26.283Z,97624.69
2018-09-05T09:10:53.986Z,97491.05
2018-09-05T09:13:21.629Z,97620.87
2018-09-05T09:15:49.946Z,97617.41
2018-09-05T09:18:18.661Z,97610.89
2018-09-05T09:20:46.286Z,97610.25
2018-09-05T09:23:13.904Z,97610.47
2018-09-05T09:25:41.549Z,97602.64
2018-09-05T09:28:09.254Z,97605.56
2018-09-05T09:30:36.862Z,97605.56
2018-09-05T09:33:04.499Z,97605.02
2018-09-05T09:35:32.130Z,97606.74
2018-09-05T09:37:59.753Z,97606.74
2018-09-05T09:40:27.413Z,97606.97
2018-09-05T09:42:55.103Z,97610.20
2018-09-05T09:45:22.744Z,97600.23
2018-09-05T09:47:50.500Z,97598.01
2018-09-05T09:50:18.120Z,97590.15
2018-09-05T09:52:45.744Z,97593.39
2018-09-05T09:55:13.375Z,97593.32
2018-09-05T09:57:41.027Z,97599.44
2018-09-05T10:00:08.775Z,97603.38
2018-09-05T10:02:41.901Z,97601.94
2018-09-05T10:05:14.774Z,97598.38
2018-09-05T10:07:47.859Z,97596.12
2018-09-05T10:10:21.191Z,97589.48
2018-09-05T10:12:48.918Z,97585.91
2018-09-05T10:16:24.741Z,97582.66
2018-09-05T10:18:53.456Z,97573.30
2018-09-05T10:21:21.318Z,97576.30
2018-09-05T10:23:48.989Z,97573.34
2018-09-05T10:26:16.613Z,97572.98
2018-09-05T10:28:44.242Z,97570.71
2018-09-05T10:31:11.897Z,97570.91
2018-09-05T10:33:39.559Z,97559.21
2018-09-05T10:36:07.185Z,97556.77
2018-09-05T10:38:34.827Z,97563.16
2018-09-05T10:41:02.456Z,97557.69
2018-09-05T10:43:30.097Z,97551.59
2018-09-05T10:45:57.746Z,97555.53
2018-09-05T10:48:25.495Z,97554.55
2018-09-05T10:50:53.154Z,97550.73
2018-09-05T10:53:20.778Z,97546.14
2018-09-05T10:55:48.811Z,97550.41
2018-09-05T10:58:16.467Z,97543.66
2018-09-05T11:00:44.137Z,97541.77
2018-09-05T11:03:11.774Z,97545.59
2018-09-05T11:05:39.397Z,97536.84
2018-09-05T11:08:07.197Z,97541.58
2018-09-05T11:10:34.897Z,97542.02
2018-09-05T11:13:02.499Z,97534.80
2018-09-05T11:15:30.122Z,97540.56
2018-09-05T11:17:57.761Z,97537.06
2018-09-05T11:20:25.448Z,97530.79
2018-09-05T11:22:53.097Z,97529.88
2018-09-05T11:25:20.741Z,97525.76
2018-09-05T11:27:48.447Z,97528.78
2018-09-05T11:30:16.038Z,97527.00
2018-09-05T11:32:43.672Z,97525.65
2018-09-05T11:35:11.381Z,97522.08
2018-09-05T11:37:39.052Z,97522.52
2018-09-05T11:40:07.185Z,97519.59
2018-09-05T11:42:34.833Z,97521.09
2018-09-05T11:45:02.470Z,97522.08
2018-09-05T11:47:30.101Z,97525.36
2018-09-05T11:49:57.732Z,97517.16
2018-09-05T11:52:25.382Z,97520.54
2018-09-05T11:54:53.012Z,97519.19
2018-09-05T11:57:20.722Z,97518.64
2018-09-05T11:59:48.348Z,97514.59
2018-09-05T12:02:16.060Z,97510.44
2018-09-05T12:04:43.710Z,97506.58
2018-09-05T12:07:11.966Z,97507.59
2018-09-05T12:09:39.606Z,97502.89
2018-09-05T12:12:07.306Z,97503.28
2018-09-05T12:14:35.059Z,97501.37
2018-09-05T12:17:03.036Z,97497.33
2018-09-05T12:19:30.885Z,97505.09
2018-09-05T12:21:58.692Z,97497.00
2018-09-05T12:24:26.528Z,97493.42
2018-09-05T12:26:54.311Z,97489.81
2018-09-05T12:29:22.146Z,97491.95
2018-09-05T12:31:50.574Z,97493.78
2018-09-05T12:34:18.309Z,97486.12
2018-09-05T12:36:46.118Z,97488.27
2018-09-05T12:39:14.846Z,97489.50
2018-09-05T12:41:43.208Z,97482.53
2018-09-05T12:44:11.178Z,97490.30
2018-09-05T12:46:39.131Z,97483.55
2018-09-05T12:49:06.817Z,97477.02
2018-09-05T12:51:34.539Z,97476.91
2018-09-05T12:54:02.311Z,97482.55
2018-09-05T12:56:29.996Z,97474.34
2018-09-05T12:58:57.694Z,97469.74
2018-09-05T13:01:25.548Z,97464.34
2018-09-05T13:03:53.325Z,97468.50
2018-09-05T13:06:21.043Z,97462.21
2018-09-05T13:08:48.737Z,97463.90
2018-09-05T13:11:16.582Z,97460.64
2018-09-05T13:13:44.358Z,97457.50
2018-09-05T13:16:12.033Z,97444.00
2018-09-05T13:18:39.814Z,97452.77
2018-09-05T13:21:07.538Z,97447.83
2018-09-05T13:23:35.541Z,97449.28
2018-09-05T13:26:03.249Z,97448.73
2018-09-05T13:28:31.019Z,97446.03
2018-09-05T13:30:58.734Z,97446.83
2018-09-05T13:33:26.511Z,97447.05
2018-09-05T13:35:54.348Z,97444.47
2018-09-05T13:38:22.100Z,97447.86
2018-09-05T13:40:49.957Z,97444.02
2018-09-05T13:43:17.793Z,97441.20
2018-09-05T13:45:45.603Z,97441.67
2018-09-05T13:48:13.361Z,97442.34
2018-09-05T13:50:41.121Z,97441.11
2018-09-05T13:53:08.908Z,97444.03
2018-09-05T13:55:36.666Z,97441.77
2018-09-05T13:58:04.510Z,97435.03
2018-09-05T14:00:32.247Z,97431.66
2018-09-05T14:03:00.009Z,97431.76
2018-09-05T14:05:27.827Z,97429.39
2018-09-05T14:07:55.592Z,97430.07
2018-09-05T14:10:23.417Z,97429.27
2018-09-05T14:12:51.174Z,97425.69
2018-09-05T14:15:18.915Z,97426.82
2018-09-05T14:17:46.760Z,97432.22
2018-09-05T14:20:14.594Z,97422.77
2018-09-05T14:22:42.356Z,97428.39
2018-09-05T14:25:10.106Z,97422.44
2018-09-05T14:27:37.970Z,97424.00
2018-09-05T14:30:05.746Z,97415.09
2018-09-05T14:32:33.545Z,97416.23
2018-09-05T14:35:01.326Z,97415.56
2018-09-05T14:37:29.101Z,97415.09
2018-09-05T14:39:56.751Z,97413.41
2018-09-05T14:42:24.484Z,97404.76
2018-09-05T14:44:52.126Z,97410.37
2018-09-05T14:47:19.795Z,97404.98
2018-09-05T14:49:47.447Z,97398.22
2018-09-05T14:52:15.082Z,97399.23
2018-09-05T14:54:42.717Z,97400.49
2018-09-05T14:57:10.345Z,97404.76
2018-09-05T14:59:38.050Z,97400.59
2018-09-05T15:02:05.675Z,97405.98
2018-09-05T15:04:33.319Z,97402.52
2018-09-05T15:07:01.198Z,97407.34
2018-09-05T15:09:29.226Z,97201.69
2018-09-05T15:11:56.993Z,97396.44
2018-09-05T15:14:24.818Z,97397.09
2018-09-05T15:16:52.624Z,97396.20
2018-09-05T15:19:20.401Z,97393.38
2018-09-05T15:21:48.133Z,97385.28
2018-09-05T15:24:15.842Z,97389.53
2018-09-05T15:26:43.560Z,97386.16
2018-09-05T15:29:11.363Z,97385.48
2018-09-05T15:31:39.102Z,97385.82
2018-09-05T15:34:06.850Z,97385.60
2018-09-05T15:36:34.538Z,97387.75
2018-09-05T15:39:02.382Z,97383.02
2018-09-05T15:41:30.121Z,97382.91
2018-09-05T15:43:57.832Z,97381.89
2018-09-05T15:46:25.583Z,97383.80
2018-09-05T15:48:53.388Z,97375.14
2018-09-05T15:51:21.131Z,97372.11
2018-09-05T15:53:48.931Z,97368.19
2018-09-05T15:56:16.674Z,97368.61
2018-09-05T15:58:44.468Z,97366.37
2018-09-05T16:01:12.237Z,97362.31
2018-09-05T16:03:40.040Z,97369.75
2018-09-05T16:06:07.691Z,97367.84
2018-09-05T16:08:35.429Z,97365.14
2018-09-05T16:11:03.343Z,97360.84
2018-09-05T16:13:31.060Z,97360.20
2018-09-05T16:15:58.802Z,97361.22
2018-09-05T16:18:26.525Z,97362.45
2018-09-05T16:20:54.320Z,97361.86
2018-09-05T16:23:22.000Z,97358.05
2018-09-05T16:25:49.699Z,97358.27
2018-09-05T16:28:17.463Z,97359.62
2018-09-05T16:30:45.196Z,97359.41
2018-09-05T16:38:02.287Z,97351.86
2018-09-05T16:40:30.270Z,97357.16
2018-09-05T16:42:58.187Z,97351.52
2018-09-05T16:45:26.228Z,97354.67
2018-09-05T16:47:54.339Z,97349.83
2018-09-05T16:50:22.761Z,97350.08
2018-09-05T16:52:50.831Z,97352.53
2018-09-05T16:55:19.795Z,97350.63
2018-09-05T16:57:47.821Z,97346.80
2018-09-05T17:00:15.846Z,97350.30
2018-09-05T17:02:43.797Z,97351.18
2018-09-05T17:05:11.659Z,97354.67
2018-09-05T17:07:39.366Z,97354.13
2018-09-05T17:10:07.101Z,97350.41
2018-09-05T17:12:34.906Z,97352.31
2018-09-05T17:15:02.654Z,97351.52
2018-09-05T17:17:30.388Z,97353.45
2018-09-05T17:19:58.173Z,97352.77
2018-09-05T17:22:25.972Z,97348.72
2018-09-05T17:24:53.892Z,97353.31
2018-09-05T17:27:21.670Z,97349.94
2018-09-05T17:29:49.376Z,97348.59
2018-09-05T17:32:17.123Z,97345.55
2018-09-05T17:34:45.008Z,97343.99
2018-09-05T17:37:12.732Z,97341.63
2018-09-05T17:39:40.488Z,97339.48
2018-09-05T17:42:08.263Z,97343.86
2018-09-05T17:44:35.995Z,97340.83
2018-09-05T17:47:03.730Z,97337.33
2018-09-05T17:49:31.433Z,97337.91
2018-09-05T17:51:59.193Z,97344.66
2018-09-05T17:54:26.946Z,97345.21
2018-09-05T17:56:54.642Z,97339.98
2018-09-05T17:59:22.397Z,97341.00
2018-09-05T18:01:50.234Z,97341.34
2018-09-05T18:04:17.998Z,97343.48
2018-09-05T18:06:45.785Z,97342.47
2018-09-05T18:09:13.505Z,97347.65
2018-09-05T18:11:41.230Z,97350.56
2018-09-05T18:14:09.013Z,97353.59
2018-09-05T18:16:36.700Z,97353.71
2018-09-05T18:19:04.447Z,97354.73
2018-09-05T18:21:32.287Z,97362.82
2018-09-05T18:24:00.028Z,97359.33
2018-09-05T18:26:27.838Z,97363.84
2018-09-05T18:28:55.625Z,97362.02
2018-09-05T18:31:23.378Z,97365.85
2018-09-05T18:33:51.199Z,97369.90
2018-09-05T18:36:18.974Z,97368.30
2018-09-05T18:38:46.634Z,97367.75
2018-09-05T18:41:14.372Z,97368.55
2018-09-05T18:43:42.134Z,97372.81
2018-09-05T18:46:09.885Z,97376.39
2018-09-05T18:48:37.557Z,97372.35
2018-09-05T18:51:05.349Z,97374.28
2018-09-05T18:53:33.167Z,97376.17
2018-09-05T18:56:00.903Z,97373.48
2018-09-05T18:58:28.672Z,97371.80
2018-09-05T19:00:56.534Z,97366.52
2018-09-05T19:03:24.317Z,97363.02
2018-09-05T19:05:51.970Z,97363.61
2018-09-05T19:08:19.907Z,97364.37
2018-09-05T19:10:47.582Z,97365.17
2018-09-05T19:13:15.399Z,97367.41
2018-09-05T19:15:43.128Z,97368.75
2018-09-05T19:18:10.813Z,97364.95
2018-09-05T19:20:38.502Z,97362.01
2018-09-05T19:23:06.376Z,97359.64
2018-09-05T19:25:34.101Z,97364.70
2018-09-05T19:28:01.897Z,97360.91
2018-09-05T19:30:29.693Z,97361.23
2018-09-05T19:32:57.521Z,97360.66
2018-09-05T19:35:25.401Z,97366.30
2018-09-05T19:37:53.372Z,97358.88
2018-09-05T19:40:21.093Z,97355.38
2018-09-05T19:42:48.955Z,97354.58
2018-09-05T19:45:16.838Z,97359.64
2018-09-05T19:47:44.729Z,97359.09
2018-09-05T19:50:12.631Z,97357.53
2018-09-05T19:52:40.415Z,97365.62
2018-09-05T19:55:08.234Z,97367.30
2018-09-05T19:57:36.002Z,97368.87
2018-09-05T20:00:03.800Z,97372.45
2018-09-05T20:02:31.581Z,97366.50
2018-09-05T20:04:59.433Z,97368.07
2018-09-05T20:07:27.141Z,97365.38
2018-09-05T20:09:54.908Z,97374.38
2018-09-05T20:12:22.679Z,97368.40
2018-09-05T20:14:50.541Z,97365.70
2018-09-05T20:17:18.624Z,97377.52
2018-09-05T20:19:46.447Z,97367.52
2018-09-05T20:22:14.183Z,97365.95
2018-09-05T20:24:42.058Z,97360.56
2018-09-05T20:27:10.280Z,97359.77
2018-09-05T20:29:38.020Z,97356.52
2018-09-05T20:32:06.125Z,97359.55
2018-09-05T20:34:33.879Z,97357.39
2018-09-05T20:37:01.748Z,97360.31
2018-09-05T20:39:29.521Z,97359.30
2018-09-05T20:41:57.325Z,97359.30
2018-09-05T20:44:25.135Z,97357.61
2018-09-05T20:46:53.812Z,97356.18
2018-09-05T20:49:21.608Z,97355.25
2018-09-05T20:51:49.450Z,97366.72
2018-09-05T20:54:17.296Z,97361.44
2018-09-05T20:56:45.087Z,97358.96
2018-09-05T20:59:12.957Z,97359.30
2018-09-05T21:01:40.759Z,97359.55
2018-09-05T21:04:08.491Z,97353.90
2018-09-05T21:06:36.189Z,97354.70
2018-09-05T21:09:05.155Z,97353.03
2018-09-05T21:11:32.911Z,97354.71
2018-09-05T21:14:00.786Z,97346.83
2018-09-05T21:16:28.505Z,97348.42
2018-09-05T21:18:56.298Z,97348.28
2018-09-05T21:21:24.001Z,97347.16
2018-09-05T21:23:51.666Z,97348.50
2018-09-05T21:26:19.453Z,97348.84
2018-09-05T21:28:47.116Z,97347.82
2018-09-05T21:31:14.796Z,97347.82
2018-09-05T21:33:42.598Z,97349.17
2018-09-05T21:36:10.300Z,97351.87
2018-09-05T21:38:38.104Z,97350.98
2018-09-05T21:41:05.842Z,97344.58
2018-09-05T21:43:33.553Z,97347.05
2018-09-05T21:46:01.311Z,97346.14
2018-09-05T21:48:29.402Z,97341.33
2018-09-05T21:50:57.100Z,97347.27
2018-09-05T21:53:24.931Z,97345.12
2018-09-05T21:55:52.633Z,97345.12
2018-09-05T21:58:20.496Z,97341.08
2018-09-05T22:00:48.718Z,97343.56
2018-09-05T22:03:16.474Z,97343.56
2018-09-05T22:05:44.202Z,97336.81
2018-09-05T22:08:11.945Z,97336.59
2018-09-05T22:10:39.693Z,97339.30
2018-09-05T22:13:07.522Z,97336.59
2018-09-05T22:15:40.601Z,97338.72
2018-09-05T22:18:08.332Z,97339.30
2018-09-05T22:20:36.113Z,97336.59
2018-09-05T22:23:03.861Z,97336.94
2018-09-05T22:25:31.602Z,97329.39
2018-09-05T22:27:59.592Z,97336.69
2018-09-05T22:33:01.953Z,97330.27
2018-09-05T22:35:30.021Z,97335.92
2018-09-05T22:37:57.911Z,97335.12
2018-09-05T22:40:26.031Z,97335.34
2018-09-05T22:42:59.184Z,97336.94
2018-09-05T22:45:32.545Z,97337.48
2018-09-05T22:48:11.104Z,97330.27
2018-09-05T22:50:54.508Z,97332.42
2018-09-05T22:54:30.824Z,97329.26
2018-09-05T22:57:17.948Z,97326.56
2018-09-05T22:59:52.003Z,97326.02
2018-09-05T23:02:35.522Z,97321.75
2018-09-05T23:06:09.418Z,97312.06
2018-09-05T23:08:42.361Z,97319.82
2018-09-05T23:11:15.838Z,97313.99
2018-09-05T23:13:49.223Z,97314.21
2018-09-05T23:16:22.763Z,97319.38
2018-09-05T23:19:00.797Z,97321.75
2018-09-05T23:21:28.648Z,97325.55
2018-09-05T23:23:58.101Z,97318.25
2018-09-05T23:26:25.943Z,97315.56
2018-09-05T23:28:53.700Z,97311.52
2018-09-05T23:31:21.701Z,97311.84
2018-09-05T23:33:49.423Z,97309.95
2018-09-05T23:36:17.171Z,97316.44
2018-09-05T23:38:44.925Z,97317.23
2018-09-05T23:41:12.667Z,97317.23
2018-09-05T23:43:40.444Z,97320.81
2018-09-05T23:46:08.249Z,97311.63
2018-09-05T23:48:36.154Z,97303.87
2018-09-05T23:51:03.845Z,97307.92
2018-09-05T23:53:31.658Z,97312.73
2018-09-05T23:55:59.403Z,97306.32
2018-09-05T23:58:27.180Z,97305.55
